Time,TemperatureF,DewpointF,PressureIn,WindDirection,WindDirectionDegrees,WindSpeedMPH,WindSpeedGustMPH,Humidity,HourlyPrecipIn,Conditions,Clouds,dailyrainin,SoftwareType,DateUTC
2013-04-07 00:00:00,63.7,61.0,30.11,NW,308,0.0,1.0,91,0.00,,,0.00,weatherlink.com 1.10,2013-04-07 04:00:00,
2013-04-07 00:15:00,64.2,61.0,30.10,ENE,72,0.0,2.0,89,0.00,,,0.00,weatherlink.com 1.10,2013-04-07 04:15:00,
2013-04-07 00:30:00,64.4,61.0,30.11,ENE,63,0.0,2.0,87,0.00,,,0.00,weatherlink.com 1.10,2013-04-07 04:30:00,
2013-04-07 00:45:00,64.0,60.0,30.11,NNE,23,0.0,1.0,88,0.00,,,0.00,weatherlink.com 1.10,2013-04-07 04:45:00,
2013-04-07 01:00:00,64.0,60.0,30.10,NE,34,1.0,1.0,87,0.00,,,0.00,weatherlink.com 1.10,2013-04-07 05:00:00,
2013-04-07 01:16:00,64.2,60.0,30.09,ENE,78,0.0,3.0,86,0.00,,,0.00,weatherlink.com 1.10,2013-04-07 05:16:00,
2013-04-07 01:30:00,64.1,60.0,30.09,ESE,107,0.0,2.0,86,0.00,,,0.00,weatherlink.com 1.10,2013-04-07 05:30:00,
2013-04-07 01:46:00,63.9,60.0,30.08,SW,219,0.0,1.0,87,0.00,,,0.00,weatherlink.com 1.10,2013-04-07 05:46:00,
2013-04-07 02:01:00,63.9,60.0,30.08,East,92,0.0,6.0,87,0.00,,,0.00,weatherlink.com 1.10,2013-04-07 06:01:00,
2013-04-07 04:02:00,63.2,60.0,30.05,ENE,68,3.0,6.0,90,0.00,,,0.00,weatherlink.com 1.10,2013-04-07 08:02:00,
2013-04-07 04:39:00,62.8,60.0,30.05,East,84,0.0,5.0,91,0.00,,,0.00,weatherlink.com 1.10,2013-04-07 08:39:00,
2013-04-07 04:47:00,62.8,60.0,30.06,East,95,1.0,7.0,91,0.00,,,0.00,weatherlink.com 1.10,2013-04-07 08:47:00,
2013-04-07 05:02:00,62.6,60.0,30.07,East,100,0.0,3.0,92,0.00,,,0.00,weatherlink.com 1.10,2013-04-07 09:02:00,
2013-04-07 05:17:00,62.5,60.0,30.07,SE,138,3.0,4.0,92,0.00,,,0.00,weatherlink.com 1.10,2013-04-07 09:17:00,
2013-04-07 05:32:00,62.8,61.0,30.07,East,81,0.0,4.0,92,0.00,,,0.00,weatherlink.com 1.10,2013-04-07 09:32:00,
2013-04-07 05:47:00,63.0,61.0,30.07,East,91,1.0,6.0,92,0.00,,,0.00,weatherlink.com 1.10,2013-04-07 09:47:00,
2013-04-07 06:02:00,63.0,61.0,30.08,East,91,1.0,3.0,92,0.00,,,0.00,weatherlink.com 1.10,2013-04-07 10:02:00,
2013-04-07 06:17:00,63.2,61.0,30.08,ESE,111,1.0,3.0,92,0.00,,,0.00,weatherlink.com 1.10,2013-04-07 10:17:00,
2013-04-07 06:32:00,63.0,61.0,30.08,NE,53,0.0,1.0,92,0.00,,,0.00,weatherlink.com 1.10,2013-04-07 10:32:00,
2013-04-07 06:47:00,62.6,61.0,30.09,NE,53,0.0,1.0,93,0.00,,,0.00,weatherlink.com 1.10,2013-04-07 10:47:00,
2013-04-07 07:02:00,62.4,60.0,30.10,ENE,58,0.0,1.0,93,0.00,,,0.00,weatherlink.com 1.10,2013-04-07 11:02:00,
2013-04-07 07:17:00,62.2,61.0,30.11,ENE,58,0.0,1.0,94,0.00,,,0.00,weatherlink.com 1.10,2013-04-07 11:17:00,
2013-04-07 07:32:00,62.2,61.0,30.11,East,80,0.0,2.0,94,0.00,,,0.00,weatherlink.com 1.10,2013-04-07 11:32:00,
2013-04-07 07:47:00,62.6,61.0,30.11,ENE,69,0.0,2.0,94,0.00,,,0.00,weatherlink.com 1.10,2013-04-07 11:47:00,
2013-04-07 08:02:00,63.3,61.0,30.11,East,96,2.0,2.0,93,0.00,,,0.00,weatherlink.com 1.10,2013-04-07 12:02:00,
2013-04-07 08:17:00,65.2,63.0,30.12,East,94,1.0,5.0,91,0.00,,,0.00,weatherlink.com 1.10,2013-04-07 12:17:00,
2013-04-07 08:32:00,66.9,63.0,30.12,ESE,113,3.0,6.0,87,0.00,,,0.00,weatherlink.com 1.10,2013-04-07 12:32:00,
2013-04-07 08:47:00,68.1,63.0,30.13,ENE,70,6.0,6.0,83,0.00,,,0.00,weatherlink.com 1.10,2013-04-07 12:47:00,
2013-04-07 09:02:00,69.4,63.0,30.13,ENE,72,2.0,7.0,79,0.00,,,0.00,weatherlink.com 1.10,2013-04-07 13:02:00,
2013-04-07 09:17:00,70.9,63.0,30.14,ENE,74,3.0,7.0,75,0.00,,,0.00,weatherlink.com 1.10,2013-04-07 13:17:00,
2013-04-07 09:33:00,72.0,63.0,30.14,SSE,159,0.0,7.0,74,0.00,,,0.00,weatherlink.com 1.10,2013-04-07 13:33:00,
2013-04-07 09:48:00,72.7,62.0,30.14,SW,224,2.0,8.0,70,0.00,,,0.00,weatherlink.com 1.10,2013-04-07 13:48:00,
2013-04-07 10:03:00,73.7,62.0,30.14,East,98,2.0,8.0,68,0.00,,,0.00,weatherlink.com 1.10,2013-04-07 14:03:00,
2013-04-07 10:18:00,74.5,62.0,30.15,East,96,3.0,13.0,65,0.00,,,0.00,weatherlink.com 1.10,2013-04-07 14:18:00,
2013-04-07 10:33:00,75.8,63.0,30.14,East,97,4.0,9.0,64,0.00,,,0.00,weatherlink.com 1.10,2013-04-07 14:33:00,
2013-04-07 10:48:00,75.3,62.0,30.14,ENE,76,4.0,7.0,63,0.00,,,0.00,weatherlink.com 1.10,2013-04-07 14:48:00,
2013-04-07 11:03:00,76.1,62.0,30.14,ENE,63,4.0,8.0,61,0.00,,,0.00,weatherlink.com 1.10,2013-04-07 15:03:00,
2013-04-07 11:18:00,76.0,61.0,30.14,ESE,107,5.0,7.0,60,0.00,,,0.00,weatherlink.com 1.10,2013-04-07 15:18:00,
2013-04-07 11:33:00,77.2,61.0,30.15,East,81,2.0,10.0,58,0.00,,,0.00,weatherlink.com 1.10,2013-04-07 15:33:00,
2013-04-07 11:48:00,78.4,62.0,30.14,East,99,0.0,8.0,58,0.00,,,0.00,weatherlink.com 1.10,2013-04-07 15:48:00,
2013-04-07 12:03:00,78.3,62.0,30.14,South,187,2.0,6.0,57,0.00,,,0.00,weatherlink.com 1.10,2013-04-07 16:03:00,
2013-04-07 12:18:00,78.6,62.0,30.14,South,186,3.0,7.0,57,0.00,,,0.00,weatherlink.com 1.10,2013-04-07 16:18:00,
2013-04-07 12:33:00,77.4,62.0,30.14,South,169,7.0,9.0,60,0.00,,,0.00,weatherlink.com 1.10,2013-04-07 16:33:00,
2013-04-07 13:03:00,77.7,61.0,30.13,SW,218,2.0,6.0,56,0.00,,,0.00,weatherlink.com 1.10,2013-04-07 17:03:00,
2013-04-07 13:18:00,79.2,61.0,30.12,SSW,212,4.0,6.0,54,0.00,,,0.00,weatherlink.com 1.10,2013-04-07 17:18:00,
2013-04-07 13:33:00,80.0,61.0,30.12,SW,219,4.0,7.0,52,0.00,,,0.00,weatherlink.com 1.10,2013-04-07 17:33:00,
2013-04-07 13:48:00,79.0,62.0,30.11,WNW,293,3.0,5.0,56,0.00,,,0.00,weatherlink.com 1.10,2013-04-07 17:48:00,
2013-04-07 14:03:00,80.5,62.0,30.11,North,358,3.0,4.0,53,0.00,,,0.00,weatherlink.com 1.10,2013-04-07 18:03:00,
2013-04-07 14:18:00,78.0,62.0,30.11,NNW,330,0.0,6.0,58,0.00,,,0.00,weatherlink.com 1.10,2013-04-07 18:18:00,
2013-04-07 14:33:00,77.1,61.0,30.10,NW,323,2.0,7.0,58,0.00,,,0.00,weatherlink.com 1.10,2013-04-07 18:33:00,
2013-04-07 14:49:00,78.1,62.0,30.10,NNW,347,1.0,7.0,57,0.00,,,0.00,weatherlink.com 1.10,2013-04-07 18:49:00,
2013-04-07 15:03:00,78.8,62.0,30.09,West,281,2.0,5.0,57,0.00,,,0.00,weatherlink.com 1.10,2013-04-07 19:03:00,
2013-04-07 15:18:00,80.0,62.0,30.09,NNW,330,1.0,5.0,55,0.00,,,0.00,weatherlink.com 1.10,2013-04-07 19:18:00,
2013-04-07 15:48:00,78.6,62.0,30.08,NW,313,2.0,5.0,57,0.00,,,0.00,weatherlink.com 1.10,2013-04-07 19:48:00,
2013-04-07 16:18:00,79.9,61.0,30.07,NNW,344,2.0,4.0,53,0.00,,,0.00,weatherlink.com 1.10,2013-04-07 20:18:00,
2013-04-07 17:04:00,80.6,61.0,30.06,NNW,334,1.0,4.0,52,0.00,,,0.00,weatherlink.com 1.10,2013-04-07 21:04:00,
2013-04-07 17:19:00,80.0,61.0,30.06,NW,320,1.0,4.0,53,0.00,,,0.00,weatherlink.com 1.10,2013-04-07 21:19:00,
2013-04-07 17:48:00,79.7,60.0,30.06,North,355,1.0,4.0,52,0.00,,,0.00,weatherlink.com 1.10,2013-04-07 21:48:00,
2013-04-07 18:04:00,80.8,61.0,30.06,NW,318,1.0,3.0,51,0.00,,,0.00,weatherlink.com 1.10,2013-04-07 22:04:00,
2013-04-07 18:34:00,78.4,62.0,30.05,NNW,345,2.0,5.0,57,0.00,,,0.00,weatherlink.com 1.10,2013-04-07 22:34:00,
2013-04-07 19:04:00,76.0,66.0,30.06,NNE,18,3.0,5.0,70,0.00,,,0.00,weatherlink.com 1.10,2013-04-07 23:04:00,
2013-04-07 19:19:00,74.2,65.0,30.05,NNE,13,1.0,5.0,74,0.00,,,0.00,weatherlink.com 1.10,2013-04-07 23:19:00,
2013-04-07 19:34:00,72.7,64.0,30.05,ENE,57,1.0,4.0,74,0.00,,,0.00,weatherlink.com 1.10,2013-04-07 23:34:00,
2013-04-07 20:19:00,71.1,63.0,30.06,NE,46,2.0,3.0,76,0.00,,,0.00,weatherlink.com 1.10,2013-04-08 00:19:00,
2013-04-07 20:34:00,71.1,63.0,30.06,NNE,13,1.0,2.0,75,0.00,,,0.00,weatherlink.com 1.10,2013-04-08 00:34:00,
2013-04-07 20:49:00,70.9,62.0,30.07,NNW,341,1.0,3.0,73,0.00,,,0.00,weatherlink.com 1.10,2013-04-08 00:49:00,
2013-04-07 21:04:00,70.6,62.0,30.07,NNW,342,0.0,1.0,74,0.00,,,0.00,weatherlink.com 1.10,2013-04-08 01:04:00,
2013-04-07 21:19:00,70.3,62.0,30.08,North,355,0.0,1.0,75,0.00,,,0.00,weatherlink.com 1.10,2013-04-08 01:19:00,
2013-04-07 21:34:00,69.5,62.0,30.08,North,356,0.0,0.0,78,0.00,,,0.00,weatherlink.com 1.10,2013-04-08 01:34:00,
2013-04-07 21:49:00,69.0,63.0,30.09,North,355,0.0,0.0,80,0.00,,,0.00,weatherlink.com 1.10,2013-04-08 01:49:00,
2013-04-07 22:04:00,69.2,62.0,30.09,NE,37,0.0,0.0,78,0.00,,,0.00,weatherlink.com 1.10,2013-04-08 02:04:00,
2013-04-07 22:19:00,68.8,62.0,30.10,NE,35,0.0,1.0,80,0.00,,,0.00,weatherlink.com 1.10,2013-04-08 02:19:00,
2013-04-07 22:34:00,68.7,63.0,30.10,NNE,33,0.0,1.0,81,0.00,,,0.00,weatherlink.com 1.10,2013-04-08 02:34:00,
2013-04-07 22:49:00,68.8,62.0,30.10,SE,131,0.0,1.0,79,0.00,,,0.00,weatherlink.com 1.10,2013-04-08 02:49:00,
2013-04-07 23:04:00,68.8,62.0,30.10,SE,129,0.0,1.0,80,0.00,,,0.00,weatherlink.com 1.10,2013-04-08 03:04:00,
2013-04-07 23:34:00,70.0,63.0,30.10,East,96,0.0,3.0,78,0.00,,,0.00,weatherlink.com 1.10,2013-04-08 03:34:00,
2013-04-07 23:49:00,70.3,63.0,30.10,East,95,1.0,3.0,78,0.00,,,0.00,weatherlink.com 1.10,2013-04-08 03:49:00,